sensor_id;sensor_type;location;lat;lon;timestamp;pressure;altitude;pressure_sealevel;temperature;humidity
24280;BME280;12395;42.808;23.408;2022-11-27T00:00:58;95839.78;;;-0.97;100.00
24280;BME280;12395;42.808;23.408;2022-11-27T00:03:24;95864.38;;;-0.79;100.00
24280;BME280;12395;42.808;23.408;2022-11-27T00:05:53;95867.97;;;-0.69;100.00
24280;BME280;12395;42.808;23.408;2022-11-27T00:08:19;95859.91;;;-0.66;100.00
24280;BME280;12395;42.808;23.408;2022-11-27T00:10:45;95865.41;;;-0.58;100.00
24280;BME280;12395;42.808;23.408;2022-11-27T00:13:10;95863.25;;;-0.64;100.00
24280;BME280;12395;42.808;23.408;2022-11-27T00:15:35;95847.88;;;-0.67;100.00
24280;BME280;12395;42.808;23.408;2022-11-27T00:18:01;95869.16;;;-0.51;100.00
24280;BME280;12395;42.808;23.408;2022-11-27T00:20:26;95852.50;;;-0.48;100.00
24280;BME280;12395;42.808;23.408;2022-11-27T00:22:51;95844.13;;;-0.41;100.00
24280;BME280;12395;42.808;23.408;2022-11-27T00:25:17;95861.75;;;-0.22;100.00
24280;BME280;12395;42.808;23.408;2022-11-27T00:27:42;95846.00;;;-0.21;100.00
24280;BME280;12395;42.808;23.408;2022-11-27T00:30:08;95852.38;;;-0.14;100.00
24280;BME280;12395;42.808;23.408;2022-11-27T00:32:33;95855.22;;;-0.06;100.00
24280;BME280;12395;42.808;23.408;2022-11-27T00:34:59;95863.72;;;0.08;100.00
24280;BME280;12395;42.808;23.408;2022-11-27T00:37:24;95861.22;;;0.17;100.00
24280;BME280;12395;42.808;23.408;2022-11-27T00:39:49;95858.00;;;0.25;100.00
24280;BME280;12395;42.808;23.408;2022-11-27T00:42:15;95871.63;;;0.28;100.00
24280;BME280;12395;42.808;23.408;2022-11-27T00:44:40;95870.56;;;0.31;100.00
24280;BME280;12395;42.808;23.408;2022-11-27T00:47:06;95862.59;;;0.43;100.00
24280;BME280;12395;42.808;23.408;2022-11-27T00:49:31;95860.78;;;0.55;100.00
24280;BME280;12395;42.808;23.408;2022-11-27T00:51:56;95872.00;;;0.66;100.00
24280;BME280;12395;42.808;23.408;2022-11-27T00:54:22;95870.22;;;0.67;100.00
24280;BME280;12395;42.808;23.408;2022-11-27T00:56:47;95876.59;;;0.74;100.00
24280;BME280;12395;42.808;23.408;2022-11-27T00:59:12;95879.41;;;0.82;100.00
24280;BME280;12395;42.808;23.408;2022-11-27T01:01:40;95885.16;;;0.97;100.00
24280;BME280;12395;42.808;23.408;2022-11-27T01:04:10;95860.66;;;0.88;100.00
24280;BME280;12395;42.808;23.408;2022-11-27T01:06:36;95883.34;;;1.08;100.00
24280;BME280;12395;42.808;23.408;2022-11-27T01:09:03;95879.28;;;1.15;100.00
24280;BME280;12395;42.808;23.408;2022-11-27T01:11:31;95872.16;;;1.17;100.00
24280;BME280;12395;42.808;23.408;2022-11-27T01:13:59;95868.44;;;1.20;100.00
24280;BME280;12395;42.808;23.408;2022-11-27T01:16:27;95868.75;;;1.26;100.00
24280;BME280;12395;42.808;23.408;2022-11-27T01:18:53;95879.50;;;1.33;100.00
24280;BME280;12395;42.808;23.408;2022-11-27T01:21:20;95871.97;;;1.30;100.00
24280;BME280;12395;42.808;23.408;2022-11-27T01:23:47;95875.13;;;1.33;100.00
24280;BME280;12395;42.808;23.408;2022-11-27T01:26:13;95871.19;;;1.39;100.00
24280;BME280;12395;42.808;23.408;2022-11-27T01:28:39;95853.69;;;1.30;100.00
24280;BME280;12395;42.808;23.408;2022-11-27T01:31:07;95859.34;;;1.35;100.00
24280;BME280;12395;42.808;23.408;2022-11-27T01:33:33;95865.53;;;1.34;100.00
24280;BME280;12395;42.808;23.408;2022-11-27T01:36:02;95845.53;;;1.23;100.00
24280;BME280;12395;42.808;23.408;2022-11-27T01:38:28;95853.88;;;1.17;100.00
24280;BME280;12395;42.808;23.408;2022-11-27T01:40:58;95856.50;;;1.17;100.00
24280;BME280;12395;42.808;23.408;2022-11-27T01:43:47;95843.94;;;1.11;100.00
24280;BME280;12395;42.808;23.408;2022-11-27T01:46:27;95853.69;;;1.30;100.00
24280;BME280;12395;42.808;23.408;2022-11-27T01:48:57;95844.31;;;1.27;100.00
24280;BME280;12395;42.808;23.408;2022-11-27T01:51:24;95853.16;;;1.36;100.00
24280;BME280;12395;42.808;23.408;2022-11-27T01:53:51;95845.72;;;1.31;100.00
24280;BME280;12395;42.808;23.408;2022-11-27T01:56:17;95840.25;;;1.34;100.00
24280;BME280;12395;42.808;23.408;2022-11-27T01:58:43;95838.28;;;1.47;100.00
24280;BME280;12395;42.808;23.408;2022-11-27T02:01:09;95832.06;;;1.48;100.00
24280;BME280;12395;42.808;23.408;2022-11-27T02:03:35;95825.81;;;1.61;100.00
24280;BME280;12395;42.808;23.408;2022-11-27T02:06:00;95825.09;;;1.58;100.00
24280;BME280;12395;42.808;23.408;2022-11-27T02:08:26;95824.63;;;1.65;100.00
24280;BME280;12395;42.808;23.408;2022-11-27T02:11:02;95839.66;;;1.82;100.00
24280;BME280;12395;42.808;23.408;2022-11-27T02:13:34;95839.66;;;1.82;100.00
24280;BME280;12395;42.808;23.408;2022-11-27T02:18:54;95835.53;;;1.79;100.00
24280;BME280;12395;42.808;23.408;2022-11-27T02:21:46;95848.22;;;1.84;100.00
24280;BME280;12395;42.808;23.408;2022-11-27T02:29:18;95845.75;;;1.92;100.00
24280;BME280;12395;42.808;23.408;2022-11-27T02:31:56;95858.44;;;1.96;100.00
24280;BME280;12395;42.808;23.408;2022-11-27T02:34:32;95859.38;;;1.95;100.00
24280;BME280;12395;42.808;23.408;2022-11-27T02:39:40;95851.22;;;1.89;100.00
24280;BME280;12395;42.808;23.408;2022-11-27T02:42:15;95866.91;;;1.89;100.00
24280;BME280;12395;42.808;23.408;2022-11-27T02:47:42;95857.53;;;1.86;100.00
24280;BME280;12395;42.808;23.408;2022-11-27T02:50:12;95866.91;;;1.89;100.00
24280;BME280;12395;42.808;23.408;2022-11-27T02:52:38;95848.69;;;1.78;100.00
24280;BME280;12395;42.808;23.408;2022-11-27T02:55:07;95857.44;;;1.88;100.00
24280;BME280;12395;42.808;23.408;2022-11-27T02:57:37;95857.22;;;1.80;100.00
24280;BME280;12395;42.808;23.408;2022-11-27T03:00:04;95868.00;;;1.86;100.00
24280;BME280;12395;42.808;23.408;2022-11-27T03:02:38;95867.88;;;1.88;100.00
24280;BME280;12395;42.808;23.408;2022-11-27T03:05:10;95868.00;;;1.86;100.00
24280;BME280;12395;42.808;23.408;2022-11-27T03:10:10;95859.91;;;1.89;100.00
24280;BME280;12395;42.808;23.408;2022-11-27T03:12:37;95857.84;;;1.93;100.00
24280;BME280;12395;42.808;23.408;2022-11-27T03:15:04;95850.81;;;1.84;100.00
24280;BME280;12395;42.808;23.408;2022-11-27T03:18:05;95874.91;;;1.97;100.00
24280;BME280;12395;42.808;23.408;2022-11-27T03:20:38;95874.34;;;1.84;100.00
24280;BME280;12395;42.808;23.408;2022-11-27T03:23:05;95865.91;;;1.80;100.00
24280;BME280;12395;42.808;23.408;2022-11-27T03:25:31;95867.28;;;1.84;100.00
24280;BME280;12395;42.808;23.408;2022-11-27T03:28:05;95871.19;;;1.90;100.00
24280;BME280;12395;42.808;23.408;2022-11-27T03:30:32;95863.88;;;1.84;100.00
24280;BME280;12395;42.808;23.408;2022-11-27T03:32:58;95872.72;;;1.92;100.00
24280;BME280;12395;42.808;23.408;2022-11-27T03:35:24;95864.47;;;1.97;100.00
24280;BME280;12395;42.808;23.408;2022-11-27T03:37:51;95873.03;;;1.99;100.00
24280;BME280;12395;42.808;23.408;2022-11-27T03:40:17;95874.53;;;2.01;100.00
24280;BME280;12395;42.808;23.408;2022-11-27T03:43:04;95871.91;;;2.01;100.00
24280;BME280;12395;42.808;23.408;2022-11-27T03:46:05;95872.50;;;2.05;100.00
24280;BME280;12395;42.808;23.408;2022-11-27T03:51:07;95849.91;;;1.94;100.00
24280;BME280;12395;42.808;23.408;2022-11-27T03:54:09;95865.34;;;2.07;100.00
24280;BME280;12395;42.808;23.408;2022-11-27T03:56:42;95850.59;;;2.06;100.00
24280;BME280;12395;42.808;23.408;2022-11-27T03:59:19;95854.88;;;2.07;100.00
24280;BME280;12395;42.808;23.408;2022-11-27T04:01:47;95841.78;;;1.97;100.00
24280;BME280;12395;42.808;23.408;2022-11-27T04:04:12;95858.44;;;2.06;100.00
24280;BME280;12395;42.808;23.408;2022-11-27T04:06:38;95843.06;;;2.03;100.00
24280;BME280;12395;42.808;23.408;2022-11-27T04:09:04;95854.59;;;2.10;100.00
24280;BME280;12395;42.808;23.408;2022-11-27T04:11:29;95863.72;;;2.15;100.00
24280;BME280;12395;42.808;23.408;2022-11-27T04:13:55;95848.44;;;2.11;100.00
24280;BME280;12395;42.808;23.408;2022-11-27T04:16:20;95848.88;;;2.16;100.00
24280;BME280;12395;42.808;23.408;2022-11-27T04:18:46;95831.22;;;2.08;100.00
24280;BME280;12395;42.808;23.408;2022-11-27T04:21:11;95834.50;;;2.01;100.00
24280;BME280;12395;42.808;23.408;2022-11-27T04:23:37;95829.78;;;1.95;100.00
24280;BME280;12395;42.808;23.408;2022-11-27T04:26:03;95837.91;;;1.92;100.00
24280;BME280;12395;42.808;23.408;2022-11-27T04:28:29;95851.28;;;1.98;100.00
24280;BME280;12395;42.808;23.408;2022-11-27T04:30:55;95843.00;;;1.93;100.00
24280;BME280;12395;42.808;23.408;2022-11-27T04:33:21;95840.53;;;1.92;100.00
24280;BME280;12395;42.808;23.408;2022-11-27T04:35:47;95840.53;;;1.92;100.00
24280;BME280;12395;42.808;23.408;2022-11-27T04:38:13;95851.53;;;1.95;100.00
24280;BME280;12395;42.808;23.408;2022-11-27T04:40:38;95829.22;;;1.82;100.00
24280;BME280;12395;42.808;23.408;2022-11-27T04:43:04;95846.53;;;1.83;100.00
24280;BME280;12395;42.808;23.408;2022-11-27T04:45:29;95849.38;;;1.70;100.00
24280;BME280;12395;42.808;23.408;2022-11-27T04:47:54;95859.69;;;1.72;100.00
24280;BME280;12395;42.808;23.408;2022-11-27T04:50:20;95855.97;;;1.65;100.00
24280;BME280;12395;42.808;23.408;2022-11-27T04:52:45;95876.56;;;1.68;100.00
24280;BME280;12395;42.808;23.408;2022-11-27T04:55:10;95867.88;;;1.58;100.00
24280;BME280;12395;42.808;23.408;2022-11-27T04:57:36;95864.09;;;1.50;100.00
24280;BME280;12395;42.808;23.408;2022-11-27T05:00:02;95882.38;;;1.50;100.00
24280;BME280;12395;42.808;23.408;2022-11-27T05:02:28;95866.09;;;1.37;100.00
24280;BME280;12395;42.808;23.408;2022-11-27T05:04:54;95871.00;;;1.31;100.00
24280;BME280;12395;42.808;23.408;2022-11-27T05:07:19;95844.16;;;1.19;100.00
24280;BME280;12395;42.808;23.408;2022-11-27T05:09:44;95843.19;;;1.00;100.00
24280;BME280;12395;42.808;23.408;2022-11-27T05:12:10;95845.13;;;1.07;100.00
24280;BME280;12395;42.808;23.408;2022-11-27T05:14:36;95847.94;;;0.95;100.00
24280;BME280;12395;42.808;23.408;2022-11-27T05:17:02;95867.72;;;0.97;100.00
24280;BME280;12395;42.808;23.408;2022-11-27T05:19:28;95873.31;;;0.93;100.00
24280;BME280;12395;42.808;23.408;2022-11-27T05:21:55;95866.75;;;0.77;100.00
24280;BME280;12395;42.808;23.408;2022-11-27T05:24:22;95878.38;;;0.73;100.00
24280;BME280;12395;42.808;23.408;2022-11-27T05:26:48;95877.59;;;0.62;100.00
24280;BME280;12395;42.808;23.408;2022-11-27T05:29:15;95870.03;;;0.48;100.00
24280;BME280;12395;42.808;23.408;2022-11-27T05:31:41;95860.84;;;0.33;100.00
24280;BME280;12395;42.808;23.408;2022-11-27T05:34:07;95880.72;;;0.45;100.00
24280;BME280;12395;42.808;23.408;2022-11-27T05:36:34;95875.19;;;0.38;100.00
24280;BME280;12395;42.808;23.408;2022-11-27T05:39:01;95880.16;;;0.30;100.00
24280;BME280;12395;42.808;23.408;2022-11-27T05:41:27;95886.09;;;0.21;100.00
24280;BME280;12395;42.808;23.408;2022-11-27T05:43:52;95884.22;;;0.23;100.00
24280;BME280;12395;42.808;23.408;2022-11-27T05:46:20;95880.16;;;0.30;100.00
24280;BME280;12395;42.808;23.408;2022-11-27T05:48:46;95889.00;;;0.39;100.00
24280;BME280;12395;42.808;23.408;2022-11-27T05:51:12;95874.34;;;0.27;100.00
24280;BME280;12395;42.808;23.408;2022-11-27T05:53:38;95891.19;;;0.34;100.00
24280;BME280;12395;42.808;23.408;2022-11-27T05:56:05;95898.66;;;0.27;100.00
24280;BME280;12395;42.808;23.408;2022-11-27T05:58:31;95884.91;;;0.14;100.00
24280;BME280;12395;42.808;23.408;2022-11-27T06:00:57;95886.22;;;0.20;100.00
24280;BME280;12395;42.808;23.408;2022-11-27T06:03:23;95871.53;;;0.19;100.00
24280;BME280;12395;42.808;23.408;2022-11-27T06:05:49;95876.34;;;0.34;100.00
24280;BME280;12395;42.808;23.408;2022-11-27T06:08:14;95891.38;;;0.42;100.00
24280;BME280;12395;42.808;23.408;2022-11-27T06:10:40;95903.34;;;0.55;100.00
24280;BME280;12395;42.808;23.408;2022-11-27T06:13:05;95901.09;;;0.51;100.00
24280;BME280;12395;42.808;23.408;2022-11-27T06:15:31;95883.78;;;0.50;100.00
24280;BME280;12395;42.808;23.408;2022-11-27T06:17:57;95890.75;;;0.60;100.00
24280;BME280;12395;42.808;23.408;2022-11-27T06:20:22;95896.50;;;0.75;100.00
24280;BME280;12395;42.808;23.408;2022-11-27T06:22:48;95895.94;;;0.71;100.00
24280;BME280;12395;42.808;23.408;2022-11-27T06:25:13;95882.56;;;0.65;100.00
24280;BME280;12395;42.808;23.408;2022-11-27T06:27:39;95883.38;;;0.65;100.00
24280;BME280;12395;42.808;23.408;2022-11-27T06:30:05;95899.50;;;0.70;100.00
24280;BME280;12395;42.808;23.408;2022-11-27T06:32:31;95900.78;;;0.76;100.00
24280;BME280;12395;42.808;23.408;2022-11-27T06:34:56;95901.31;;;0.91;100.00
24280;BME280;12395;42.808;23.408;2022-11-27T06:37:22;95889.88;;;1.03;100.00
24280;BME280;12395;42.808;23.408;2022-11-27T06:39:48;95884.88;;;1.11;100.00
24280;BME280;12395;42.808;23.408;2022-11-27T06:42:13;95884.22;;;1.18;100.00
24280;BME280;12395;42.808;23.408;2022-11-27T06:44:39;95880.03;;;1.27;100.00
24280;BME280;12395;42.808;23.408;2022-11-27T06:47:04;95890.03;;;1.42;100.00
24280;BME280;12395;42.808;23.408;2022-11-27T06:49:30;95897.75;;;1.65;100.00
24280;BME280;12395;42.808;23.408;2022-11-27T06:51:55;95869.00;;;1.65;100.00
24280;BME280;12395;42.808;23.408;2022-11-27T06:54:21;95894.44;;;1.93;100.00
24280;BME280;12395;42.808;23.408;2022-11-27T06:56:48;95903.56;;;2.08;100.00
24280;BME280;12395;42.808;23.408;2022-11-27T06:59:14;95902.25;;;2.23;100.00
24280;BME280;12395;42.808;23.408;2022-11-27T07:01:39;95883.13;;;2.22;100.00
24280;BME280;12395;42.808;23.408;2022-11-27T07:04:07;95894.63;;;2.41;100.00
24280;BME280;12395;42.808;23.408;2022-11-27T07:06:32;95898.91;;;2.51;100.00
24280;BME280;12395;42.808;23.408;2022-11-27T07:08:58;95898.66;;;2.64;100.00
24280;BME280;12395;42.808;23.408;2022-11-27T07:11:26;95900.47;;;2.82;100.00
24280;BME280;12395;42.808;23.408;2022-11-27T07:13:54;95897.19;;;2.90;100.00
24280;BME280;12395;42.808;23.408;2022-11-27T07:16:20;95902.84;;;3.04;100.00
24280;BME280;12395;42.808;23.408;2022-11-27T07:18:49;95906.56;;;3.21;100.00
24280;BME280;12395;42.808;23.408;2022-11-27T07:21:15;95907.66;;;3.28;100.00
24280;BME280;12395;42.808;23.408;2022-11-27T07:23:41;95898.84;;;3.29;100.00
24280;BME280;12395;42.808;23.408;2022-11-27T07:26:18;95897.31;;;3.46;100.00
24280;BME280;12395;42.808;23.408;2022-11-27T07:28:45;95898.28;;;3.54;100.00
24280;BME280;12395;42.808;23.408;2022-11-27T07:31:12;95906.78;;;3.66;100.00
24280;BME280;12395;42.808;23.408;2022-11-27T07:33:37;95893.84;;;3.64;100.00
24280;BME280;12395;42.808;23.408;2022-11-27T07:36:06;95913.53;;;3.78;98.34
24280;BME280;12395;42.808;23.408;2022-11-27T07:38:33;95890.06;;;3.76;98.07
24280;BME280;12395;42.808;23.408;2022-11-27T07:40:59;95902.59;;;3.92;97.73
24280;BME280;12395;42.808;23.408;2022-11-27T07:43:26;95902.59;;;4.02;97.92
24280;BME280;12395;42.808;23.408;2022-11-27T07:45:52;95890.16;;;4.04;97.70
24280;BME280;12395;42.808;23.408;2022-11-27T07:48:17;95881.59;;;4.02;97.32
24280;BME280;12395;42.808;23.408;2022-11-27T07:50:43;95902.63;;;4.19;96.94
24280;BME280;12395;42.808;23.408;2022-11-27T07:53:08;95908.72;;;4.20;98.00
24280;BME280;12395;42.808;23.408;2022-11-27T07:55:36;95890.06;;;4.23;97.41
24280;BME280;12395;42.808;23.408;2022-11-27T07:58:02;95896.63;;;4.36;97.30
24280;BME280;12395;42.808;23.408;2022-11-27T08:00:27;95898.44;;;4.36;97.67
24280;BME280;12395;42.808;23.408;2022-11-27T08:02:53;95901.00;;;4.45;97.70
24280;BME280;12395;42.808;23.408;2022-11-27T08:05:18;95893.81;;;4.47;97.23
24280;BME280;12395;42.808;23.408;2022-11-27T08:07:44;95894.31;;;4.60;97.17
24280;BME280;12395;42.808;23.408;2022-11-27T08:10:09;95899.50;;;4.70;95.73
24280;BME280;12395;42.808;23.408;2022-11-27T08:12:34;95901.22;;;4.79;95.57
24280;BME280;12395;42.808;23.408;2022-11-27T08:15:00;95901.09;;;4.81;94.69
24280;BME280;12395;42.808;23.408;2022-11-27T08:17:27;95890.88;;;4.78;94.49
24280;BME280;12395;42.808;23.408;2022-11-27T08:19:52;95902.00;;;4.89;94.65
24280;BME280;12395;42.808;23.408;2022-11-27T08:22:18;95908.19;;;4.98;93.38
24280;BME280;12395;42.808;23.408;2022-11-27T08:24:45;95903.59;;;5.00;93.60
24280;BME280;12395;42.808;23.408;2022-11-27T08:27:12;95915.53;;;5.12;93.42
24280;BME280;12395;42.808;23.408;2022-11-27T08:29:38;95908.63;;;5.11;92.84
24280;BME280;12395;42.808;23.408;2022-11-27T08:32:04;95913.78;;;5.03;92.73
24280;BME280;12395;42.808;23.408;2022-11-27T08:34:30;95906.47;;;5.06;92.90
24280;BME280;12395;42.808;23.408;2022-11-27T08:36:58;95896.25;;;5.03;93.75
24280;BME280;12395;42.808;23.408;2022-11-27T08:39:24;95900.75;;;5.11;93.70
24280;BME280;12395;42.808;23.408;2022-11-27T08:41:51;95905.09;;;5.20;93.84
24280;BME280;12395;42.808;23.408;2022-11-27T08:44:16;95894.47;;;5.21;93.16
24280;BME280;12395;42.808;23.408;2022-11-27T08:46:42;95892.13;;;5.18;93.67
24280;BME280;12395;42.808;23.408;2022-11-27T08:49:08;95902.19;;;5.23;94.06
24280;BME280;12395;42.808;23.408;2022-11-27T08:51:33;95893.25;;;5.33;93.61
24280;BME280;12395;42.808;23.408;2022-11-27T08:53:59;95898.22;;;5.36;93.21
24280;BME280;12395;42.808;23.408;2022-11-27T08:56:24;95879.66;;;5.38;93.09
24280;BME280;12395;42.808;23.408;2022-11-27T08:58:51;95874.06;;;5.41;93.14
24280;BME280;12395;42.808;23.408;2022-11-27T09:01:19;95885.47;;;5.49;93.35
24280;BME280;12395;42.808;23.408;2022-11-27T09:03:46;95894.41;;;5.57;93.20
24280;BME280;12395;42.808;23.408;2022-11-27T09:06:14;95890.03;;;5.65;92.70
24280;BME280;12395;42.808;23.408;2022-11-27T09:08:41;95886.50;;;5.74;91.68
24280;BME280;12395;42.808;23.408;2022-11-27T09:11:07;95886.72;;;5.81;90.77
24280;BME280;12395;42.808;23.408;2022-11-27T09:13:34;95893.47;;;5.83;89.95
24280;BME280;12395;42.808;23.408;2022-11-27T09:16:05;95880.03;;;5.86;89.38
24280;BME280;12395;42.808;23.408;2022-11-27T09:18:31;95883.03;;;5.91;89.70
24280;BME280;12395;42.808;23.408;2022-11-27T09:21:03;95886.63;;;5.90;89.84
24280;BME280;12395;42.808;23.408;2022-11-27T09:23:29;95861.91;;;5.83;89.79
24280;BME280;12395;42.808;23.408;2022-11-27T09:25:59;95878.44;;;5.93;89.28
24280;BME280;12395;42.808;23.408;2022-11-27T09:28:25;95868.28;;;5.98;88.79
24280;BME280;12395;42.808;23.408;2022-11-27T09:30:54;95870.63;;;6.09;88.70
24280;BME280;12395;42.808;23.408;2022-11-27T09:33:20;95856.97;;;6.06;87.95
24280;BME280;12395;42.808;23.408;2022-11-27T09:35:46;95859.59;;;6.06;88.26
24280;BME280;12395;42.808;23.408;2022-11-27T09:38:11;95860.47;;;6.14;87.73
24280;BME280;12395;42.808;23.408;2022-11-27T09:40:36;95859.84;;;6.20;87.74
24280;BME280;12395;42.808;23.408;2022-11-27T09:43:10;95863.00;;;6.24;87.93
24280;BME280;12395;42.808;23.408;2022-11-27T09:45:43;95862.38;;;6.30;88.19
24280;BME280;12395;42.808;23.408;2022-11-27T09:48:18;95861.25;;;6.41;88.10
24280;BME280;12395;42.808;23.408;2022-11-27T09:50:50;95853.84;;;6.44;87.09
24280;BME280;12395;42.808;23.408;2022-11-27T09:55:46;95836.94;;;6.55;87.98
24280;BME280;12395;42.808;23.408;2022-11-27T10:01:22;95830.09;;;6.70;87.60
24280;BME280;12395;42.808;23.408;2022-11-27T10:03:48;95814.28;;;6.62;88.38
24280;BME280;12395;42.808;23.408;2022-11-27T10:07:09;95842.47;;;6.85;87.55
24280;BME280;12395;42.808;23.408;2022-11-27T10:12:17;95829.47;;;6.84;87.50
24280;BME280;12395;42.808;23.408;2022-11-27T10:18:01;95818.63;;;7.03;86.05
24280;BME280;12395;42.808;23.408;2022-11-27T10:20:36;95819.28;;;7.13;85.10
24280;BME280;12395;42.808;23.408;2022-11-27T10:25:49;95811.72;;;7.18;85.67
24280;BME280;12395;42.808;23.408;2022-11-27T10:33:55;95795.22;;;7.40;83.35
24280;BME280;12395;42.808;23.408;2022-11-27T10:36:34;95792.75;;;7.47;82.48
24280;BME280;12395;42.808;23.408;2022-11-27T10:39:00;95779.06;;;7.59;81.45
24280;BME280;12395;42.808;23.408;2022-11-27T10:41:33;95783.19;;;7.62;80.92
24280;BME280;12395;42.808;23.408;2022-11-27T10:46:50;95775.25;;;7.78;80.01
24280;BME280;12395;42.808;23.408;2022-11-27T10:49:18;95780.00;;;7.91;79.92
24280;BME280;12395;42.808;23.408;2022-11-27T10:51:43;95776.00;;;7.95;79.35
24280;BME280;12395;42.808;23.408;2022-11-27T10:54:19;95773.16;;;8.04;78.06
24280;BME280;12395;42.808;23.408;2022-11-27T10:57:11;95774.00;;;8.05;77.07
24280;BME280;12395;42.808;23.408;2022-11-27T10:59:59;95755.59;;;7.80;76.22
24280;BME280;12395;42.808;23.408;2022-11-27T11:02:31;95773.19;;;7.96;77.22
24280;BME280;12395;42.808;23.408;2022-11-27T11:05:08;95758.53;;;7.94;77.96
24280;BME280;12395;42.808;23.408;2022-11-27T11:07:34;95750.78;;;7.92;77.67
24280;BME280;12395;42.808;23.408;2022-11-27T11:09:59;95761.66;;;7.97;77.16
24280;BME280;12395;42.808;23.408;2022-11-27T11:12:24;95761.00;;;7.87;77.94
24280;BME280;12395;42.808;23.408;2022-11-27T11:14:55;95752.44;;;7.85;78.21
24280;BME280;12395;42.808;23.408;2022-11-27T11:17:30;95749.66;;;7.87;77.46
24280;BME280;12395;42.808;23.408;2022-11-27T11:20:13;95747.19;;;7.85;76.95
24280;BME280;12395;42.808;23.408;2022-11-27T11:22:44;95744.03;;;7.90;76.73
24280;BME280;12395;42.808;23.408;2022-11-27T11:25:15;95754.25;;;7.93;75.96
24280;BME280;12395;42.808;23.408;2022-11-27T11:27:42;95740.41;;;7.91;76.82
24280;BME280;12395;42.808;23.408;2022-11-27T11:30:23;95732.66;;;7.89;77.22
24280;BME280;12395;42.808;23.408;2022-11-27T11:32:50;95742.81;;;8.08;77.56
24280;BME280;12395;42.808;23.408;2022-11-27T11:35:32;95737.00;;;8.13;76.89
24280;BME280;12395;42.808;23.408;2022-11-27T11:38:06;95727.09;;;8.15;77.46
24280;BME280;12395;42.808;23.408;2022-11-27T11:40:40;95718.84;;;8.18;77.99
24280;BME280;12395;42.808;23.408;2022-11-27T11:43:38;95722.78;;;8.22;77.03
24280;BME280;12395;42.808;23.408;2022-11-27T11:46:13;95720.31;;;8.28;77.26
24280;BME280;12395;42.808;23.408;2022-11-27T11:48:57;95714.38;;;8.26;77.04
24280;BME280;12395;42.808;23.408;2022-11-27T11:51:37;95717.84;;;8.27;76.91
24280;BME280;12395;42.808;23.408;2022-11-27T11:54:21;95705.97;;;8.23;76.16
24280;BME280;12395;42.808;23.408;2022-11-27T11:56:51;95714.69;;;8.31;75.16
24280;BME280;12395;42.808;23.408;2022-11-27T11:59:49;95695.91;;;8.18;71.39
24280;BME280;12395;42.808;23.408;2022-11-27T12:05:24;95711.75;;;8.18;72.47
24280;BME280;12395;42.808;23.408;2022-11-27T12:07:58;95713.88;;;8.23;71.12
24280;BME280;12395;42.808;23.408;2022-11-27T12:10:57;95711.38;;;8.21;70.67
24280;BME280;12395;42.808;23.408;2022-11-27T12:13:41;95700.69;;;8.15;71.21
24280;BME280;12395;42.808;23.408;2022-11-27T12:19:21;95700.84;;;8.21;71.59
24280;BME280;12395;42.808;23.408;2022-11-27T12:31:19;95690.44;;;8.28;71.01
24280;BME280;12395;42.808;23.408;2022-11-27T12:34:06;95692.44;;;8.26;70.08
24280;BME280;12395;42.808;23.408;2022-11-27T12:36:52;95687.16;;;8.26;70.59
24280;BME280;12395;42.808;23.408;2022-11-27T12:42:23;95688.84;;;8.11;70.73
24280;BME280;12395;42.808;23.408;2022-11-27T12:47:44;95685.84;;;7.83;67.19
24280;BME280;12395;42.808;23.408;2022-11-27T12:50:47;95690.69;;;7.63;67.98
24280;BME280;12395;42.808;23.408;2022-11-27T12:53:22;95680.03;;;7.57;67.77
24280;BME280;12395;42.808;23.408;2022-11-27T12:56:13;95676.28;;;7.43;67.48
24280;BME280;12395;42.808;23.408;2022-11-27T12:59:30;95680.59;;;7.28;67.66
24280;BME280;12395;42.808;23.408;2022-11-27T13:01:40;95673.72;;;7.11;68.45
24280;BME280;12395;42.808;23.408;2022-11-27T13:04:39;95669.28;;;6.95;68.92
24280;BME280;12395;42.808;23.408;2022-11-27T13:07:22;95665.81;;;6.87;69.18
24280;BME280;12395;42.808;23.408;2022-11-27T13:09:56;95677.34;;;6.94;69.69
24280;BME280;12395;42.808;23.408;2022-11-27T13:12:27;95675.72;;;6.85;69.95
24280;BME280;12395;42.808;23.408;2022-11-27T13:15:00;95678.34;;;6.85;69.45
24280;BME280;12395;42.808;23.408;2022-11-27T13:17:33;95671.59;;;6.82;69.96
24280;BME280;12395;42.808;23.408;2022-11-27T13:20:03;95673.59;;;6.88;70.22
24280;BME280;12395;42.808;23.408;2022-11-27T13:22:31;95668.97;;;6.90;70.09
24280;BME280;12395;42.808;23.408;2022-11-27T13:25:00;95673.41;;;6.90;70.47
24280;BME280;12395;42.808;23.408;2022-11-27T13:27:28;95669.13;;;6.89;70.15
24280;BME280;12395;42.808;23.408;2022-11-27T13:29:58;95673.22;;;6.91;69.77
24280;BME280;12395;42.808;23.408;2022-11-27T13:32:30;95666.19;;;6.84;70.27
24280;BME280;12395;42.808;23.408;2022-11-27T13:35:01;95659.06;;;6.84;70.60
24280;BME280;12395;42.808;23.408;2022-11-27T13:37:38;95670.13;;;6.64;70.37
24280;BME280;12395;42.808;23.408;2022-11-27T13:40:06;95662.72;;;6.43;71.22
24280;BME280;12395;42.808;23.408;2022-11-27T13:42:43;95657.28;;;6.37;71.29
24280;BME280;12395;42.808;23.408;2022-11-27T13:45:19;95665.31;;;6.35;71.35
24280;BME280;12395;42.808;23.408;2022-11-27T13:47:47;95658.59;;;6.33;71.20
24280;BME280;12395;42.808;23.408;2022-11-27T13:50:17;95656.28;;;6.30;71.39
24280;BME280;12395;42.808;23.408;2022-11-27T13:53:01;95662.69;;;6.27;71.82
24280;BME280;12395;42.808;23.408;2022-11-27T13:55:36;95664.16;;;6.30;72.15
24280;BME280;12395;42.808;23.408;2022-11-27T13:58:03;95665.31;;;6.35;72.62
24280;BME280;12395;42.808;23.408;2022-11-27T14:00:37;95655.97;;;6.33;72.82
24280;BME280;12395;42.808;23.408;2022-11-27T14:03:03;95652.31;;;6.17;72.03
24280;BME280;12395;42.808;23.408;2022-11-27T14:05:47;95655.44;;;6.21;72.08
24280;BME280;12395;42.808;23.408;2022-11-27T14:08:23;95672.19;;;6.12;72.47
24280;BME280;12395;42.808;23.408;2022-11-27T14:11:04;95670.03;;;5.99;72.80